sensor_id;sensor_type;location;lat;lon;timestamp;temperature;humidity
66213;SHT31;53015;50.046;8.238;2022-07-11T00:02:23;18.06;72.18
66213;SHT31;53015;50.046;8.238;2022-07-11T00:04:49;18.15;71.82
66213;SHT31;53015;50.046;8.238;2022-07-11T00:07:15;18.11;71.66
66213;SHT31;53015;50.046;8.238;2022-07-11T00:09:41;18.08;71.91
66213;SHT31;53015;50.046;8.238;2022-07-11T00:12:08;18.08;71.84
66213;SHT31;53015;50.046;8.238;2022-07-11T00:14:33;18.11;71.71
66213;SHT31;53015;50.046;8.238;2022-07-11T00:16:59;18.22;71.51
66213;SHT31;53015;50.046;8.238;2022-07-11T00:19:24;18.18;71.73
66213;SHT31;53015;50.046;8.238;2022-07-11T00:21:52;18.26;71.68
66213;SHT31;53015;50.046;8.238;2022-07-11T00:24:18;18.22;71.91
66213;SHT31;53015;50.046;8.238;2022-07-11T00:26:45;18.25;71.47
66213;SHT31;53015;50.046;8.238;2022-07-11T00:29:11;18.19;71.62
66213;SHT31;53015;50.046;8.238;2022-07-11T00:31:36;18.09;71.97
66213;SHT31;53015;50.046;8.238;2022-07-11T00:34:02;18.12;72.04
66213;SHT31;53015;50.046;8.238;2022-07-11T00:36:27;18.26;71.80
66213;SHT31;53015;50.046;8.238;2022-07-11T00:38:53;18.25;72.25
66213;SHT31;53015;50.046;8.238;2022-07-11T00:41:18;18.29;72.22
66213;SHT31;53015;50.046;8.238;2022-07-11T00:43:51;18.24;72.11
66213;SHT31;53015;50.046;8.238;2022-07-11T00:46:16;18.24;72.16
66213;SHT31;53015;50.046;8.238;2022-07-11T00:48:42;18.28;72.38
66213;SHT31;53015;50.046;8.238;2022-07-11T00:51:07;18.31;71.99
66213;SHT31;53015;50.046;8.238;2022-07-11T00:53:34;18.21;72.47
66213;SHT31;53015;50.046;8.238;2022-07-11T00:55:59;18.24;72.66
66213;SHT31;53015;50.046;8.238;2022-07-11T00:58:26;18.26;72.58
66213;SHT31;53015;50.046;8.238;2022-07-11T01:00:52;18.26;72.20
66213;SHT31;53015;50.046;8.238;2022-07-11T01:03:17;18.31;71.94
66213;SHT31;53015;50.046;8.238;2022-07-11T01:05:43;18.29;71.56
66213;SHT31;53015;50.046;8.238;2022-07-11T01:08:08;18.31;71.78
66213;SHT31;53015;50.046;8.238;2022-07-11T01:10:34;18.29;72.24
66213;SHT31;53015;50.046;8.238;2022-07-11T01:12:59;18.26;72.73
66213;SHT31;53015;50.046;8.238;2022-07-11T01:15:25;18.26;72.89
66213;SHT31;53015;50.046;8.238;2022-07-11T01:17:51;18.25;73.01
66213;SHT31;53015;50.046;8.238;2022-07-11T01:20:22;18.25;72.25
66213;SHT31;53015;50.046;8.238;2022-07-11T01:25:22;18.25;72.59
66213;SHT31;53015;50.046;8.238;2022-07-11T01:28:05;18.26;72.47
66213;SHT31;53015;50.046;8.238;2022-07-11T01:30:32;18.25;72.93
66213;SHT31;53015;50.046;8.238;2022-07-11T01:32:58;18.19;72.99
66213;SHT31;53015;50.046;8.238;2022-07-11T01:35:25;18.33;72.47
66213;SHT31;53015;50.046;8.238;2022-07-11T01:37:51;18.29;72.69
66213;SHT31;53015;50.046;8.238;2022-07-11T01:40:17;18.26;73.04
66213;SHT31;53015;50.046;8.238;2022-07-11T01:42:42;18.28;73.02
66213;SHT31;53015;50.046;8.238;2022-07-11T01:45:09;18.18;73.18
66213;SHT31;53015;50.046;8.238;2022-07-11T01:47:35;18.21;73.27
66213;SHT31;53015;50.046;8.238;2022-07-11T01:50:01;18.16;73.52
66213;SHT31;53015;50.046;8.238;2022-07-11T01:52:27;18.18;74.10
66213;SHT31;53015;50.046;8.238;2022-07-11T01:54:53;18.21;74.18
66213;SHT31;53015;50.046;8.238;2022-07-11T01:57:19;18.24;73.88
66213;SHT31;53015;50.046;8.238;2022-07-11T01:59:44;18.19;73.86
66213;SHT31;53015;50.046;8.238;2022-07-11T02:02:10;18.19;73.85
66213;SHT31;53015;50.046;8.238;2022-07-11T02:04:35;18.16;73.99
66213;SHT31;53015;50.046;8.238;2022-07-11T02:07:00;18.29;73.74
66213;SHT31;53015;50.046;8.238;2022-07-11T02:09:26;18.25;73.89
66213;SHT31;53015;50.046;8.238;2022-07-11T02:11:51;18.22;73.91
66213;SHT31;53015;50.046;8.238;2022-07-11T02:14:17;18.19;74.23
66213;SHT31;53015;50.046;8.238;2022-07-11T02:16:42;18.16;74.33
66213;SHT31;53015;50.046;8.238;2022-07-11T02:19:08;18.18;73.73
66213;SHT31;53015;50.046;8.238;2022-07-11T02:21:35;18.21;73.91
66213;SHT31;53015;50.046;8.238;2022-07-11T02:24:01;18.15;74.35
66213;SHT31;53015;50.046;8.238;2022-07-11T02:26:26;18.04;75.00
66213;SHT31;53015;50.046;8.238;2022-07-11T02:28:52;18.08;75.09
66213;SHT31;53015;50.046;8.238;2022-07-11T02:31:18;18.09;75.01
66213;SHT31;53015;50.046;8.238;2022-07-11T02:33:43;18.15;74.57
66213;SHT31;53015;50.046;8.238;2022-07-11T02:36:08;18.14;74.40
66213;SHT31;53015;50.046;8.238;2022-07-11T02:38:35;18.12;74.22
66213;SHT31;53015;50.046;8.238;2022-07-11T02:41:01;18.12;74.34
66213;SHT31;53015;50.046;8.238;2022-07-11T02:43:27;18.12;74.06
66213;SHT31;53015;50.046;8.238;2022-07-11T02:45:53;18.05;74.59
66213;SHT31;53015;50.046;8.238;2022-07-11T02:48:18;17.98;74.91
66213;SHT31;53015;50.046;8.238;2022-07-11T02:50:44;18.15;74.66
66213;SHT31;53015;50.046;8.238;2022-07-11T02:53:09;18.12;74.73
66213;SHT31;53015;50.046;8.238;2022-07-11T02:55:35;18.16;74.02
66213;SHT31;53015;50.046;8.238;2022-07-11T02:58:00;18.12;74.69
66213;SHT31;53015;50.046;8.238;2022-07-11T03:00:26;18.08;74.95
66213;SHT31;53015;50.046;8.238;2022-07-11T03:02:52;18.09;75.18
66213;SHT31;53015;50.046;8.238;2022-07-11T03:05:17;18.08;75.09
66213;SHT31;53015;50.046;8.238;2022-07-11T03:07:43;18.02;75.38
66213;SHT31;53015;50.046;8.238;2022-07-11T03:10:08;18.01;75.54
66213;SHT31;53015;50.046;8.238;2022-07-11T03:12:34;18.01;75.56
66213;SHT31;53015;50.046;8.238;2022-07-11T03:14:59;17.98;75.35
66213;SHT31;53015;50.046;8.238;2022-07-11T03:17:25;18.05;75.41
66213;SHT31;53015;50.046;8.238;2022-07-11T03:19:50;18.12;75.03
66213;SHT31;53015;50.046;8.238;2022-07-11T03:22:16;18.11;75.36
66213;SHT31;53015;50.046;8.238;2022-07-11T03:24:42;18.11;74.92
66213;SHT31;53015;50.046;8.238;2022-07-11T03:27:08;18.06;74.89
66213;SHT31;53015;50.046;8.238;2022-07-11T03:29:33;18.09;74.77
66213;SHT31;53015;50.046;8.238;2022-07-11T03:31:59;18.12;74.77
66213;SHT31;53015;50.046;8.238;2022-07-11T03:34:25;18.14;75.24
66213;SHT31;53015;50.046;8.238;2022-07-11T03:36:50;18.09;75.50
66213;SHT31;53015;50.046;8.238;2022-07-11T03:39:16;18.05;75.31
66213;SHT31;53015;50.046;8.238;2022-07-11T03:41:42;18.06;75.51
66213;SHT31;53015;50.046;8.238;2022-07-11T03:44:07;18.08;75.51
66213;SHT31;53015;50.046;8.238;2022-07-11T03:46:33;18.09;75.18
66213;SHT31;53015;50.046;8.238;2022-07-11T03:48:59;18.12;75.09
66213;SHT31;53015;50.046;8.238;2022-07-11T03:51:24;18.12;74.87
66213;SHT31;53015;50.046;8.238;2022-07-11T03:53:50;18.19;74.72
66213;SHT31;53015;50.046;8.238;2022-07-11T03:56:15;18.18;75.13
66213;SHT31;53015;50.046;8.238;2022-07-11T03:58:43;18.19;75.13
66213;SHT31;53015;50.046;8.238;2022-07-11T04:01:09;18.18;75.68
66213;SHT31;53015;50.046;8.238;2022-07-11T04:03:34;18.18;75.53
66213;SHT31;53015;50.046;8.238;2022-07-11T04:06:00;18.21;75.10
66213;SHT31;53015;50.046;8.238;2022-07-11T04:08:25;18.15;75.62
66213;SHT31;53015;50.046;8.238;2022-07-11T04:10:50;18.18;75.71
66213;SHT31;53015;50.046;8.238;2022-07-11T04:13:16;18.19;75.76
66213;SHT31;53015;50.046;8.238;2022-07-11T04:15:41;18.26;75.53
66213;SHT31;53015;50.046;8.238;2022-07-11T04:18:07;18.32;75.12
66213;SHT31;53015;50.046;8.238;2022-07-11T04:20:32;18.31;74.75
66213;SHT31;53015;50.046;8.238;2022-07-11T04:22:57;18.41;74.76
66213;SHT31;53015;50.046;8.238;2022-07-11T04:25:23;18.35;74.32
66213;SHT31;53015;50.046;8.238;2022-07-11T04:27:49;18.39;73.36
66213;SHT31;53015;50.046;8.238;2022-07-11T04:30:14;18.45;73.60
66213;SHT31;53015;50.046;8.238;2022-07-11T04:32:40;18.48;73.44
66213;SHT31;53015;50.046;8.238;2022-07-11T04:35:05;18.50;74.10
66213;SHT31;53015;50.046;8.238;2022-07-11T04:37:31;18.63;73.05
66213;SHT31;53015;50.046;8.238;2022-07-11T04:39:57;18.61;74.13
66213;SHT31;53015;50.046;8.238;2022-07-11T04:42:22;18.60;72.23
66213;SHT31;53015;50.046;8.238;2022-07-11T04:44:48;18.63;72.23
66213;SHT31;53015;50.046;8.238;2022-07-11T04:47:13;18.66;71.56
66213;SHT31;53015;50.046;8.238;2022-07-11T04:49:38;18.71;72.44
66213;SHT31;53015;50.046;8.238;2022-07-11T04:52:04;18.87;71.01
66213;SHT31;53015;50.046;8.238;2022-07-11T04:54:30;18.88;70.85
66213;SHT31;53015;50.046;8.238;2022-07-11T04:56:55;18.86;70.98
66213;SHT31;53015;50.046;8.238;2022-07-11T04:59:22;18.96;71.03
66213;SHT31;53015;50.046;8.238;2022-07-11T05:01:48;19.01;70.08
66213;SHT31;53015;50.046;8.238;2022-07-11T05:04:15;18.94;70.13
66213;SHT31;53015;50.046;8.238;2022-07-11T05:06:41;18.98;70.06
66213;SHT31;53015;50.046;8.238;2022-07-11T05:09:07;19.01;70.03
66213;SHT31;53015;50.046;8.238;2022-07-11T05:11:36;18.98;70.58
66213;SHT31;53015;50.046;8.238;2022-07-11T05:14:01;19.04;69.87
66213;SHT31;53015;50.046;8.238;2022-07-11T05:16:26;19.08;69.91
66213;SHT31;53015;50.046;8.238;2022-07-11T05:18:53;19.10;70.12
66213;SHT31;53015;50.046;8.238;2022-07-11T05:21:18;19.16;69.84
66213;SHT31;53015;50.046;8.238;2022-07-11T05:23:50;19.12;69.91
66213;SHT31;53015;50.046;8.238;2022-07-11T05:26:16;19.18;69.91
66213;SHT31;53015;50.046;8.238;2022-07-11T05:28:42;19.26;69.79
66213;SHT31;53015;50.046;8.238;2022-07-11T05:31:07;19.34;69.48
66213;SHT31;53015;50.046;8.238;2022-07-11T05:33:33;19.34;69.48
66213;SHT31;53015;50.046;8.238;2022-07-11T05:36:02;19.42;69.14
66213;SHT31;53015;50.046;8.238;2022-07-11T05:38:28;19.38;69.15
66213;SHT31;53015;50.046;8.238;2022-07-11T05:40:54;19.38;69.37
66213;SHT31;53015;50.046;8.238;2022-07-11T05:43:19;19.42;69.15
66213;SHT31;53015;50.046;8.238;2022-07-11T05:45:44;19.49;69.14
66213;SHT31;53015;50.046;8.238;2022-07-11T05:48:10;19.61;69.18
66213;SHT31;53015;50.046;8.238;2022-07-11T05:50:35;19.66;68.93
66213;SHT31;53015;50.046;8.238;2022-07-11T05:53:02;19.63;69.15
66213;SHT31;53015;50.046;8.238;2022-07-11T05:55:30;19.70;69.51
66213;SHT31;53015;50.046;8.238;2022-07-11T05:57:56;19.80;68.37
66213;SHT31;53015;50.046;8.238;2022-07-11T06:00:22;19.89;67.97
66213;SHT31;53015;50.046;8.238;2022-07-11T06:02:48;19.90;68.05
66213;SHT31;53015;50.046;8.238;2022-07-11T06:05:14;19.80;68.47
66213;SHT31;53015;50.046;8.238;2022-07-11T06:07:39;19.81;68.33
66213;SHT31;53015;50.046;8.238;2022-07-11T06:10:23;19.83;68.27
66213;SHT31;53015;50.046;8.238;2022-07-11T06:12:48;19.77;68.33
66213;SHT31;53015;50.046;8.238;2022-07-11T06:15:14;19.73;68.35
66213;SHT31;53015;50.046;8.238;2022-07-11T06:17:39;19.83;68.34
66213;SHT31;53015;50.046;8.238;2022-07-11T06:20:05;20.04;68.01
66213;SHT31;53015;50.046;8.238;2022-07-11T06:22:31;20.11;67.67
66213;SHT31;53015;50.046;8.238;2022-07-11T06:24:57;20.14;66.95
66213;SHT31;53015;50.046;8.238;2022-07-11T06:27:22;20.04;67.51
66213;SHT31;53015;50.046;8.238;2022-07-11T06:29:48;20.41;66.67
66213;SHT31;53015;50.046;8.238;2022-07-11T06:32:13;20.35;66.49
66213;SHT31;53015;50.046;8.238;2022-07-11T06:34:39;20.27;66.52
66213;SHT31;53015;50.046;8.238;2022-07-11T06:37:04;20.38;66.52
66213;SHT31;53015;50.046;8.238;2022-07-11T06:39:29;20.14;66.44
66213;SHT31;53015;50.046;8.238;2022-07-11T06:41:55;20.14;66.63
66213;SHT31;53015;50.046;8.238;2022-07-11T06:44:21;20.16;66.91
66213;SHT31;53015;50.046;8.238;2022-07-11T06:46:46;20.20;67.01
66213;SHT31;53015;50.046;8.238;2022-07-11T06:49:11;20.21;67.12
66213;SHT31;53015;50.046;8.238;2022-07-11T06:51:38;20.28;66.67
66213;SHT31;53015;50.046;8.238;2022-07-11T06:54:04;20.41;66.20
66213;SHT31;53015;50.046;8.238;2022-07-11T06:56:29;20.55;66.58
66213;SHT31;53015;50.046;8.238;2022-07-11T06:58:55;20.71;65.79
66213;SHT31;53015;50.046;8.238;2022-07-11T07:01:20;20.56;65.67
66213;SHT31;53015;50.046;8.238;2022-07-11T07:03:45;20.65;65.88
66213;SHT31;53015;50.046;8.238;2022-07-11T07:06:11;20.56;65.72
66213;SHT31;53015;50.046;8.238;2022-07-11T07:08:37;20.36;66.31
66213;SHT31;53015;50.046;8.238;2022-07-11T07:11:03;20.44;66.73
66213;SHT31;53015;50.046;8.238;2022-07-11T07:13:28;20.56;66.71
66213;SHT31;53015;50.046;8.238;2022-07-11T07:15:55;20.52;66.97
66213;SHT31;53015;50.046;8.238;2022-07-11T07:18:20;20.66;65.84
66213;SHT31;53015;50.046;8.238;2022-07-11T07:20:46;20.80;65.60
66213;SHT31;53015;50.046;8.238;2022-07-11T07:23:13;20.73;65.89
66213;SHT31;53015;50.046;8.238;2022-07-11T07:25:38;20.76;65.36
66213;SHT31;53015;50.046;8.238;2022-07-11T07:28:04;20.65;65.31
66213;SHT31;53015;50.046;8.238;2022-07-11T07:30:30;20.41;65.66
66213;SHT31;53015;50.046;8.238;2022-07-11T07:32:55;20.24;66.61
66213;SHT31;53015;50.046;8.238;2022-07-11T07:35:21;20.42;66.87
66213;SHT31;53015;50.046;8.238;2022-07-11T07:37:46;20.53;66.24
66213;SHT31;53015;50.046;8.238;2022-07-11T07:40:11;20.42;66.15
66213;SHT31;53015;50.046;8.238;2022-07-11T07:42:37;20.31;65.62
66213;SHT31;53015;50.046;8.238;2022-07-11T07:45:02;20.39;65.58
66213;SHT31;53015;50.046;8.238;2022-07-11T07:47:28;20.53;65.78
66213;SHT31;53015;50.046;8.238;2022-07-11T07:49:55;20.61;64.82
66213;SHT31;53015;50.046;8.238;2022-07-11T07:52:20;20.80;64.42
66213;SHT31;53015;50.046;8.238;2022-07-11T07:54:45;21.01;64.50
66213;SHT31;53015;50.046;8.238;2022-07-11T07:57:12;21.06;63.59
66213;SHT31;53015;50.046;8.238;2022-07-11T07:59:37;21.23;63.95
66213;SHT31;53015;50.046;8.238;2022-07-11T08:02:03;21.18;62.75
66213;SHT31;53015;50.046;8.238;2022-07-11T08:04:28;21.17;62.85
66213;SHT31;53015;50.046;8.238;2022-07-11T08:06:54;20.89;63.78
66213;SHT31;53015;50.046;8.238;2022-07-11T08:09:20;21.01;63.58
66213;SHT31;53015;50.046;8.238;2022-07-11T08:11:45;20.97;63.54
66213;SHT31;53015;50.046;8.238;2022-07-11T08:14:11;21.06;63.22
66213;SHT31;53015;50.046;8.238;2022-07-11T08:16:37;21.17;62.83
66213;SHT31;53015;50.046;8.238;2022-07-11T08:19:04;21.30;62.68
66213;SHT31;53015;50.046;8.238;2022-07-11T08:21:30;21.34;62.68
66213;SHT31;53015;50.046;8.238;2022-07-11T08:23:57;21.37;63.00
66213;SHT31;53015;50.046;8.238;2022-07-11T08:26:23;21.34;62.87
66213;SHT31;53015;50.046;8.238;2022-07-11T08:28:49;21.47;62.03
66213;SHT31;53015;50.046;8.238;2022-07-11T08:31:16;21.44;61.07
66213;SHT31;53015;50.046;8.238;2022-07-11T08:33:42;21.48;61.21
66213;SHT31;53015;50.046;8.238;2022-07-11T08:36:07;21.61;61.14
66213;SHT31;53015;50.046;8.238;2022-07-11T08:38:32;21.65;61.60
66213;SHT31;53015;50.046;8.238;2022-07-11T08:40:58;21.55;60.92
66213;SHT31;53015;50.046;8.238;2022-07-11T08:43:27;21.55;60.88
66213;SHT31;53015;50.046;8.238;2022-07-11T08:45:54;21.56;60.81
66213;SHT31;53015;50.046;8.238;2022-07-11T08:48:21;21.52;60.96
66213;SHT31;53015;50.046;8.238;2022-07-11T08:50:49;21.65;60.59
66213;SHT31;53015;50.046;8.238;2022-07-11T08:53:14;21.61;60.62
66213;SHT31;53015;50.046;8.238;2022-07-11T08:55:40;21.69;60.90
66213;SHT31;53015;50.046;8.238;2022-07-11T08:58:07;21.85;60.79
66213;SHT31;53015;50.046;8.238;2022-07-11T09:00:34;21.86;59.80
66213;SHT31;53015;50.046;8.238;2022-07-11T09:03:01;21.78;58.13
66213;SHT31;53015;50.046;8.238;2022-07-11T09:05:28;21.65;58.78
66213;SHT31;53015;50.046;8.238;2022-07-11T09:07:53;21.76;58.57
66213;SHT31;53015;50.046;8.238;2022-07-11T09:10:19;21.89;58.47
66213;SHT31;53015;50.046;8.238;2022-07-11T09:13:10;22.16;58.32
66213;SHT31;53015;50.046;8.238;2022-07-11T09:15:47;22.02;59.57
66213;SHT31;53015;50.046;8.238;2022-07-11T09:20:55;21.73;60.36
66213;SHT31;53015;50.046;8.238;2022-07-11T09:23:41;21.97;60.06
66213;SHT31;53015;50.046;8.238;2022-07-11T09:26:28;22.17;59.40
66213;SHT31;53015;50.046;8.238;2022-07-11T09:29:09;22.04;59.42
66213;SHT31;53015;50.046;8.238;2022-07-11T09:31:36;22.03;59.03
66213;SHT31;53015;50.046;8.238;2022-07-11T09:34:10;22.13;58.76
66213;SHT31;53015;50.046;8.238;2022-07-11T09:36:49;22.30;58.28
66213;SHT31;53015;50.046;8.238;2022-07-11T09:39:20;22.34;57.95
66213;SHT31;53015;50.046;8.238;2022-07-11T09:41:48;22.20;58.59
66213;SHT31;53015;50.046;8.238;2022-07-11T09:44:22;22.18;58.76
66213;SHT31;53015;50.046;8.238;2022-07-11T09:46:49;22.41;57.56
66213;SHT31;53015;50.046;8.238;2022-07-11T09:49:16;22.55;57.46
66213;SHT31;53015;50.046;8.238;2022-07-11T09:51:43;22.43;58.29
66213;SHT31;53015;50.046;8.238;2022-07-11T09:54:09;22.72;57.88
66213;SHT31;53015;50.046;8.238;2022-07-11T09:56:44;22.98;57.66
66213;SHT31;53015;50.046;8.238;2022-07-11T09:59:12;22.88;56.56
66213;SHT31;53015;50.046;8.238;2022-07-11T10:01:38;23.03;56.49
66213;SHT31;53015;50.046;8.238;2022-07-11T10:04:08;23.14;55.56
66213;SHT31;53015;50.046;8.238;2022-07-11T10:06:36;23.12;55.82
66213;SHT31;53015;50.046;8.238;2022-07-11T10:09:03;22.72;56.43
66213;SHT31;53015;50.046;8.238;2022-07-11T10:11:30;22.84;56.30
66213;SHT31;53015;50.046;8.238;2022-07-11T10:13:56;23.06;56.16
66213;SHT31;53015;50.046;8.238;2022-07-11T10:17:04;23.33;55.28
66213;SHT31;53015;50.046;8.238;2022-07-11T10:19:44;23.64;54.23
66213;SHT31;53015;50.046;8.238;2022-07-11T10:22:37;24.02;53.67
66213;SHT31;53015;50.046;8.238;2022-07-11T10:30:54;23.24;54.79
66213;SHT31;53015;50.046;8.238;2022-07-11T10:33:25;22.92;55.62
66213;SHT31;53015;50.046;8.238;2022-07-11T10:35:52;22.75;56.50
66213;SHT31;53015;50.046;8.238;2022-07-11T10:38:20;22.78;56.76
66213;SHT31;53015;50.046;8.238;2022-07-11T10:40:52;23.24;55.52
66213;SHT31;53015;50.046;8.238;2022-07-11T10:45:59;23.94;53.85
66213;SHT31;53015;50.046;8.238;2022-07-11T10:48:26;23.84;53.57
66213;SHT31;53015;50.046;8.238;2022-07-11T10:51:04;23.82;53.08
66213;SHT31;53015;50.046;8.238;2022-07-11T10:53:42;24.04;52.25
66213;SHT31;53015;50.046;8.238;2022-07-11T10:56:27;24.26;51.86
66213;SHT31;53015;50.046;8.238;2022-07-11T10:59:13;24.05;52.91
66213;SHT31;53015;50.046;8.238;2022-07-11T11:02:02;24.02;53.90
66213;SHT31;53015;50.046;8.238;2022-07-11T11:04:51;23.94;52.88
66213;SHT31;53015;50.046;8.238;2022-07-11T11:07:42;23.98;53.61
66213;SHT31;53015;50.046;8.238;2022-07-11T11:15:50;24.13;52.84
66213;SHT31;53015;50.046;8.238;2022-07-11T11:23:23;24.54;51.60
66213;SHT31;53015;50.046;8.238;2022-07-11T11:25:49;24.44;51.26
66213;SHT31;53015;50.046;8.238;2022-07-11T11:28:20;24.63;50.76
66213;SHT31;53015;50.046;8.238;2022-07-11T11:30:56;24.51;51.66
66213;SHT31;53015;50.046;8.238;2022-07-11T11:33:22;24.41;52.57
66213;SHT31;53015;50.046;8.238;2022-07-11T11:36:04;24.67;51.79
66213;SHT31;53015;50.046;8.238;2022-07-11T11:38:33;24.71;51.41
66213;SHT31;53015;50.046;8.238;2022-07-11T11:40:58;24.61;52.72
66213;SHT31;53015;50.046;8.238;2022-07-11T11:43:25;24.50;51.61
66213;SHT31;53015;50.046;8.238;2022-07-11T11:45:51;24.43;53.12
66213;SHT31;53015;50.046;8.238;2022-07-11T11:48:36;24.43;52.15
66213;SHT31;53015;50.046;8.238;2022-07-11T11:51:12;24.54;52.15
66213;SHT31;53015;50.046;8.238;2022-07-11T11:56:12;24.65;52.16
66213;SHT31;53015;50.046;8.238;2022-07-11T11:58:39;24.82;50.55
66213;SHT31;53015;50.046;8.238;2022-07-11T12:01:05;24.89;51.40
66213;SHT31;53015;50.046;8.238;2022-07-11T12:03:55;24.88;50.78
66213;SHT31;53015;50.046;8.238;2022-07-11T12:06:23;25.04;50.97
66213;SHT31;53015;50.046;8.238;2022-07-11T12:08:49;24.79;51.20
66213;SHT31;53015;50.046;8.238;2022-07-11T12:11:15;24.91;50.71
66213;SHT31;53015;50.046;8.238;2022-07-11T12:13:41;24.92;50.56
66213;SHT31;53015;50.046;8.238;2022-07-11T12:16:14;24.59;51.82
66213;SHT31;53015;50.046;8.238;2022-07-11T12:19:00;24.64;51.74
66213;SHT31;53015;50.046;8.238;2022-07-11T12:21:28;24.84;51.90
66213;SHT31;53015;50.046;8.238;2022-07-11T12:23:58;25.09;50.73
66213;SHT31;53015;50.046;8.238;2022-07-11T12:26:24;25.02;50.41
66213;SHT31;53015;50.046;8.238;2022-07-11T12:34:12;24.59;51.60
66213;SHT31;53015;50.046;8.238;2022-07-11T12:36:37;24.63;51.94
66213;SHT31;53015;50.046;8.238;2022-07-11T12:39:03;25.02;51.22
66213;SHT31;53015;50.046;8.238;2022-07-11T12:41:32;24.94;51.13
66213;SHT31;53015;50.046;8.238;2022-07-11T12:43:59;24.92;51.79
66213;SHT31;53015;50.046;8.238;2022-07-11T12:46:43;25.15;50.82
66213;SHT31;53015;50.046;8.238;2022-07-11T12:49:11;25.16;51.11
66213;SHT31;53015;50.046;8.238;2022-07-11T12:51:41;24.96;50.88
66213;SHT31;53015;50.046;8.238;2022-07-11T12:54:17;25.04;51.30
66213;SHT31;53015;50.046;8.238;2022-07-11T12:56:56;25.14;51.85
66213;SHT31;53015;50.046;8.238;2022-07-11T12:59:23;25.18;51.27
66213;SHT31;53015;50.046;8.238;2022-07-11T13:07:24;24.98;51.01
66213;SHT31;53015;50.046;8.238;2022-07-11T13:10:11;25.04;51.53
66213;SHT31;53015;50.046;8.238;2022-07-11T13:12:37;25.47;49.26
66213;SHT31;53015;50.046;8.238;2022-07-11T13:15:05;25.61;48.38
66213;SHT31;53015;50.046;8.238;2022-07-11T13:17:34;25.57;48.33
66213;SHT31;53015;50.046;8.238;2022-07-11T13:20:00;25.85;48.51
66213;SHT31;53015;50.046;8.238;2022-07-11T13:22:25;26.04;47.48
66213;SHT31;53015;50.046;8.238;2022-07-11T13:24:50;26.18;47.65
66213;SHT31;53015;50.046;8.238;2022-07-11T13:27:17;25.60;47.88
66213;SHT31;53015;50.046;8.238;2022-07-11T13:29:42;25.87;48.15
66213;SHT31;53015;50.046;8.238;2022-07-11T13:32:08;25.26;48.23
66213;SHT31;53015;50.046;8.238;2022-07-11T13:34:33;25.18;49.54
66213;SHT31;53015;50.046;8.238;2022-07-11T13:36:59;25.05;50.53
66213;SHT31;53015;50.046;8.238;2022-07-11T13:39:24;24.96;50.75
66213;SHT31;53015;50.046;8.238;2022-07-11T13:41:49;24.88;51.69
66213;SHT31;53015;50.046;8.238;2022-07-11T13:44:15;24.88;50.85
66213;SHT31;53015;50.046;8.238;2022-07-11T13:46:40;24.68;51.08
66213;SHT31;53015;50.046;8.238;2022-07-11T13:49:06;24.70;51.25
66213;SHT31;53015;50.046;8.238;2022-07-11T13:51:31;25.47;49.90
66213;SHT31;53015;50.046;8.238;2022-07-11T13:53:56;25.77;49.25
66213;SHT31;53015;50.046;8.238;2022-07-11T13:56:22;25.99;49.16
66213;SHT31;53015;50.046;8.238;2022-07-11T13:58:48;26.09;49.21
66213;SHT31;53015;50.046;8.238;2022-07-11T14:01:14;25.74;48.96
66213;SHT31;53015;50.046;8.238;2022-07-11T14:03:39;26.31;48.51
66213;SHT31;53015;50.046;8.238;2022-07-11T14:06:05;26.80;47.76
66213;SHT31;53015;50.046;8.238;2022-07-11T14:08:30;26.47;47.97
66213;SHT31;53015;50.046;8.238;2022-07-11T14:10:57;25.90;48.89
66213;SHT31;53015;50.046;8.238;2022-07-11T14:13:23;25.53;49.59
66213;SHT31;53015;50.046;8.238;2022-07-11T14:15:48;25.43;50.10
66213;SHT31;53015;50.046;8.238;2022-07-11T14:18:15;25.29;50.21
66213;SHT31;53015;50.046;8.238;2022-07-11T14:20:40;25.35;50.32
66213;SHT31;53015;50.046;8.238;2022-07-11T14:23:06;25.90;48.49
66213;SHT31;53015;50.046;8.238;2022-07-11T14:25:31;26.35;47.96
66213;SHT31;53015;50.046;8.238;2022-07-11T14:27:57;26.84;46.67
66213;SHT31;53015;50.046;8.238;2022-07-11T14:30:23;26.08;47.26
66213;SHT31;53015;50.046;8.238;2022-07-11T14:32:49;25.67;48.15
66213;SHT31;53015;50.046;8.238;2022-07-11T14:35:14;25.46;48.58
66213;SHT31;53015;50.046;8.238;2022-07-11T14:37:39;25.46;49.43
66213;SHT31;53015;50.046;8.238;2022-07-11T14:40:05;25.44;49.39
66213;SHT31;53015;50.046;8.238;2022-07-11T14:42:31;25.36;49.47
66213;SHT31;53015;50.046;8.238;2022-07-11T14:44:57;25.50;48.64
66213;SHT31;53015;50.046;8.238;2022-07-11T14:47:22;25.47;48.42
66213;SHT31;53015;50.046;8.238;2022-07-11T14:49:48;26.43;46.73
66213;SHT31;53015;50.046;8.238;2022-07-11T14:52:13;26.73;45.96
66213;SHT31;53015;50.046;8.238;2022-07-11T14:54:38;26.53;46.50
66213;SHT31;53015;50.046;8.238;2022-07-11T14:57:04;26.86;45.92
66213;SHT31;53015;50.046;8.238;2022-07-11T14:59:29;26.29;47.41
66213;SHT31;53015;50.046;8.238;2022-07-11T15:01:55;26.63;47.21
66213;SHT31;53015;50.046;8.238;2022-07-11T15:04:20;26.73;46.66
66213;SHT31;53015;50.046;8.238;2022-07-11T15:06:46;27.29;44.66
66213;SHT31;53015;50.046;8.238;2022-07-11T15:09:30;28.05;42.98
66213;SHT31;53015;50.046;8.238;2022-07-11T15:12:14;28.24;42.64
66213;SHT31;53015;50.046;8.238;2022-07-11T15:14:45;28.65;43.67
66213;SHT31;53015;50.046;8.238;2022-07-11T15:17:11;28.25;43.96
66213;SHT31;53015;50.046;8.238;2022-07-11T15:19:36;26.69;47.96
66213;SHT31;53015;50.046;8.238;2022-07-11T15:22:02;26.26;48.94
66213;SHT31;53015;50.046;8.238;2022-07-11T15:24:27;26.14;49.58
66213;SHT31;53015;50.046;8.238;2022-07-11T15:26:53;28.32;44.15
66213;SHT31;53015;50.046;8.238;2022-07-11T15:29:18;29.14;42.24
66213;SHT31;53015;50.046;8.238;2022-07-11T15:31:44;29.85;41.10
66213;SHT31;53015;50.046;8.238;2022-07-11T15:34:09;30.75;39.12
66213;SHT31;53015;50.046;8.238;2022-07-11T15:36:34;31.51;38.33
66213;SHT31;53015;50.046;8.238;2022-07-11T15:39:00;31.72;38.01
66213;SHT31;53015;50.046;8.238;2022-07-11T15:41:25;30.98;38.57
66213;SHT31;53015;50.046;8.238;2022-07-11T15:43:51;30.71;39.27
66213;SHT31;53015;50.046;8.238;2022-07-11T15:46:17;29.65;41.14
66213;SHT31;53015;50.046;8.238;2022-07-11T15:48:43;29.58;41.16
66213;SHT31;53015;50.046;8.238;2022-07-11T15:51:08;30.06;40.07
66213;SHT31;53015;50.046;8.238;2022-07-11T15:53:34;30.25;39.06
66213;SHT31;53015;50.046;8.238;2022-07-11T15:56:01;31.16;37.88
66213;SHT31;53015;50.046;8.238;2022-07-11T15:58:27;31.10;38.05
66213;SHT31;53015;50.046;8.238;2022-07-11T16:00:53;31.67;37.06
66213;SHT31;53015;50.046;8.238;2022-07-11T16:03:19;30.68;38.17
66213;SHT31;53015;50.046;8.238;2022-07-11T16:05:45;30.48;39.33
66213;SHT31;53015;50.046;8.238;2022-07-11T16:08:10;29.87;38.96
66213;SHT31;53015;50.046;8.238;2022-07-11T16:10:36;29.76;39.30